Nearby METAR Reports

 

KNFE - Fentress Naval, Virginia, USA
Distance from station: ENE 5mi, 7km
Updated: Sun, 19-Sep-2021 3:56am EDT
Partly cloudy
Partly cloudy
 Wind from calm
Wind: Calm
Temperature: 70°F , 21°C
Dew Point: 66°F , 19°C
Humidity: 88%
Barometer: 30.08 inHg , 1018.6 hPa
Clouds: Partly cloudy
Visibility: 10 miles , 16 km
Cloud details: Partly cloudy 4900 ft
2021/09/19 07:56 KNFE 190756Z AUTO 00000KT 10SM SCT049 21/19 A3008 RMK AO2 SLP188 T02110194
KCPK - Chesapeake, Virginia, USA
Distance from station: W 6mi, 9km
Updated: Sun, 19-Sep-2021 4:15am EDT
Clear
Clear
 Wind from calm
Wind: Calm
Temperature: 66°F , 19°C
Dew Point: 64°F , 18°C
Humidity: 94%
Barometer: 30.09 inHg , 1019 hPa
Clouds: Clear
Visibility: 7 miles , 11 km
2021/09/19 08:15 KCPK 190815Z AUTO 00000KT 7SM CLR 19/18 A3009 RMK AO2 T01890183
 
KNTU - Oceana Nas/Souce, Virginia, USA
Distance from station: NE 14mi, 23km
Updated: Sun, 19-Sep-2021 3:56am EDT
Partly cloudy
Partly cloudy
 Wind from WSW
Wind: WSW 5 mph , 7 km/h
Temperature: 72°F , 22°C
Dew Point: 66°F , 19°C
Humidity: 83%
Barometer: 30.07 inHg , 1018.3 hPa
Clouds: Partly cloudy
Visibility: 10 miles , 16 km
Cloud details: Partly cloudy 5000 ft
Partly cloudy 30000 ft
2021/09/19 07:56 KNTU 190756Z 24004KT 10SM SCT050 SCT300 22/19 A3007 RMK AO2 SLP184 T02220194
KORF - Norfolk, Virginia, USA
Distance from station: N 15mi, 24km
Updated: Sun, 19-Sep-2021 3:51am EDT
Clear
Clear
 Wind from SW
Wind: SW 7 mph , 11 km/h
Temperature: 70°F , 21°C
Dew Point: 70°F , 21°C
Humidity: 100%
Barometer: 30.07 inHg , 1018.3 hPa
Clouds: Clear
Visibility: 10 miles , 16 km
2021/09/19 07:51 KORF 190751Z 23006KT 10SM CLR 21/21 A3007 RMK AO2 SLP183 T02110206
 
KPVG - Norfolk/Hampton, Virginia, USA
Distance from station: WNW 15mi, 24km
Updated: Sun, 19-Sep-2021 3:56am EDT
Mist, Clear
Mist, Clear
 Wind from calm
Wind: Calm
Temperature: 63°F , 17°C
Dew Point: 63°F , 17°C
Humidity: 100%
Barometer: 30.10 inHg , 1019.3 hPa
Summary: Mist
Clouds: Clear
Visibility: 5 miles , 8 km
2021/09/19 07:56 KPVG 190756Z AUTO 00000KT 5SM BR CLR 17/17 A3010 RMK AO2 SLP192 T01720172 PNO $
KNGU - Norfolk Nas/Cham, Virginia, USA
Distance from station: N 16mi, 26km
Updated: Sun, 19-Sep-2021 3:59am EDT
Few Clouds
Few Clouds
 Wind from WSW
Wind: WSW 5 mph , 7 km/h
Temperature: 73°F , 23°C
Dew Point: 68°F , 20°C
Humidity: 83%
Barometer: 30.09 inHg , 1019 hPa
Clouds: Few Clouds
Visibility: 10 miles , 16 km
Cloud details: Few Clouds 30000 ft
2021/09/19 07:59 KNGU 190759Z 24004KT 10SM FEW300 23/20 A3009 RMK AO2 SLP189 T02280200 $
 
KSFQ - Suffolk, Virginia, USA
Distance from station: W 21mi, 34km
Updated: Sun, 19-Sep-2021 3:55am EDT
Clear
Clear
 Wind from calm
Wind: Calm
Temperature: 70°F , 21°C
Dew Point: 70°F , 21°C
Humidity: 100%
Barometer: 30.10 inHg , 1019.3 hPa
Clouds: Clear
Visibility: 10 miles , 16 km
2021/09/19 07:55 KSFQ 190755Z AUTO 00000KT 10SM CLR 21/21 A3010 RMK AO2 T02050205
KONX - Currituck, North Carolina, USA
Distance from station: SSE 22mi, 36km
Updated: Sun, 19-Sep-2021 3:55am EDT
Clear
Clear
 Wind from SW
Wind: SW 3 mph , 6 km/h
Temperature: 68°F , 20°C
Dew Point: 68°F , 20°C
Humidity: 100%
Barometer: 30.08 inHg , 1018.6 hPa
Clouds: Clear
Visibility: 10 miles , 16 km
2021/09/19 07:55 KONX 190755Z AUTO 22003KT 10SM CLR 20/20 A3008 RMK AO2 T02010201
 
KLFI - Langley Afb/Hamp, Virginia, USA
Distance from station: NNW 28mi, 45km
Updated: Sun, 19-Sep-2021 3:56am EDT
Clear
Clear
 Wind from W
Wind: W 3 mph , 6 km/h
Temperature: 70°F , 21°C
Dew Point: 70°F , 21°C
Humidity: 100%
Barometer: 30.08 inHg , 1018.6 hPa
Clouds: Clear
Visibility: 10 miles , 16 km
2021/09/19 07:56 KLFI 190756Z AUTO 26003KT 10SM CLR 21/21 A3008 RMK AO2 SLP192 T02140214 $
KECG - Elizabeth City, North Carolina, USA
Distance from station: S 29mi, 46km
Updated: Sun, 19-Sep-2021 3:54am EDT
Clear
Clear
 Wind from SSW
Wind: SSW 3 mph , 6 km/h
Temperature: 68°F , 20°C
Dew Point: 66°F , 19°C
Humidity: 94%
Barometer: 30.09 inHg , 1019 hPa
Clouds: Clear
Visibility: 10 miles , 16 km
2021/09/19 07:54 KECG 190754Z AUTO 21003KT 10SM CLR 20/19 A3009 RMK AO2 SLP188 T02000194
 
KPHF - Newport News, Virginia, USA
Distance from station: NNW 35mi, 56km
Updated: Sun, 19-Sep-2021 3:54am EDT
Clear
Clear
 Wind from W
Wind: W 3 mph , 6 km/h
Temperature: 68°F , 20°C
Dew Point: 68°F , 20°C
Humidity: 100%
Barometer: 30.08 inHg , 1018.6 hPa
Clouds: Clear
Visibility: 7 miles , 11 km
2021/09/19 07:54 KPHF 190754Z AUTO 28003KT 7SM CLR 20/20 A3008 RMK AO2 SLP185 T02000200
KFAF - Ft Eustis/Felker, Virginia, USA
Distance from station: NW 37mi, 60km
Updated: Sun, 19-Sep-2021 3:56am EDT
Clear
Clear
 Wind from calm
Wind: Calm
Temperature: 70°F , 21°C
Dew Point: 63°F , 17°C
Humidity: 78%
Barometer: 30.07 inHg , 1018.3 hPa
Clouds: Clear
Visibility: 10 miles , 16 km
2021/09/19 07:56 KFAF 190756Z AUTO 00000KT 10SM CLR 21/17 A3007 RMK AO2 SLP186 T02130173 $
 
KFKN - Franklin/J B Ros, Virginia, USA
Distance from station: W 38mi, 61km
Updated: Sun, 19-Sep-2021 3:55am EDT
Clear
Clear
 Wind from calm
Wind: Calm
Temperature: 64°F , 18°C
Dew Point: 64°F , 18°C
Humidity: 100%
Barometer: 30.10 inHg , 1019.3 hPa
Clouds: Clear
Visibility: 10 miles , 16 km
2021/09/19 07:55 KFKN 190755Z AUTO 00000KT 10SM CLR 18/18 A3010 RMK AO2 T01830180
KJGG - Williamsburg, Virginia, USA
Distance from station: NW 47mi, 76km
Updated: Sun, 19-Sep-2021 3:55am EDT
Clear
Clear
 Wind from calm
Wind: Calm
Temperature: 72°F , 22°C
Dew Point: 70°F , 21°C
Humidity: 94%
Barometer: 30.09 inHg , 1019 hPa
Clouds: Clear
Visibility: 10 miles , 16 km
2021/09/19 07:55 KJGG 190755Z AUTO 00000KT 10SM CLR 22/21 A3009 RMK AO1
 
KAKQ - Norfolk/Wakefld, Virginia, USA
Distance from station: WNW 48mi, 78km
Updated: Sun, 19-Sep-2021 3:54am EDT
Clear
Clear
 Wind from calm
Wind: Calm
Temperature: 70°F , 21°C
Dew Point: 66°F , 19°C
Humidity: 88%
Barometer: 30.09 inHg , 1019 hPa
Clouds: Clear
Visibility: 9 miles , 14 km
2021/09/19 07:54 KAKQ 190754Z AUTO 00000KT 9SM CLR 21/19 A3009 RMK AO2 SLP187 T02060194
KEDE - Edenton, North Carolina, USA
Distance from station: SSW 50mi, 80km
Updated: Sun, 19-Sep-2021 3:55am EDT
Clear
Clear
 Wind from calm
Wind: Calm
Temperature: 70°F , 21°C
Dew Point: 68°F , 20°C
Humidity: 94%
Barometer: 30.10 inHg , 1019.3 hPa
Clouds: Clear
Visibility: 10 miles , 16 km
2021/09/19 07:55 KEDE 190755Z AUTO 00000KT 10SM CLR 21/20 A3010 RMK AO2 T02050202